Discovery — 3FII9 — position and weather

sailwx.info

Track history (hours):
 
Tides and Currents Weather Stations Pressure Air Temp Water Temp Dewpoint Dewpoint Depression Visibility Wind Speed Wind Dir Waves Ship Positions

Discovery

Operator: V Ships Leisure SAM

Last reported at 2014-Jul-22 22:11 UTC. Time now 2014-Jul-23 05:17 UTC.
Position N 49°48' W 000°57'.

Length 177 m; draft 9.8 m.

Type: Cargo ship. MMSI: 353389000.

Date/timePositionNaut miles runAvg speedWind from/ knotsBaromVisibWave heightAir tempDewpointWater temp
2014-Jul-22 22:11N 49°48' W 000°57'1015.2
2014-Jul-22 21:31N 49°42' W 000°44'1314.1
2014-Jul-22 20:34N 49°34' W 000°27'1313.4
2014-Jul-22 19:33N 49°30' W 000°07'1111.2
2014-Jul-22 18:33N 49°26' E 000°09'9 9.3
2014-Jul-22 17:33N 49°27' E 000°23'6 6.0
2014-Jul-22 16:33N 49°28' E 000°32'0 0.0
2014-Jul-20 16:33N 49°28' E 000°32'1010.3
2014-Jul-20 15:33N 49°26' E 000°17'1110.9
2014-Jul-20 14:34N 49°27' E 000°01'6 4.7
2014-Jul-20 13:22N 49°29' W 000°08'0 0.0
2014-Jul-20 12:31N 49°29' W 000°08'0 0.0
2014-Jul-20 11:28N 49°29' W 000°08'0 0.1
2014-Jul-20 10:28N 49°29' W 000°08'0 0.0
2014-Jul-20 09:28N 49°29' W 000°08'0 0.0
2014-Jul-20 08:28N 49°29' W 000°08'0 0.0
2014-Jul-20 07:28N 49°29' W 000°08'0 0.1
2014-Jul-20 06:31N 49°29' W 000°08'0 0.1
2014-Jul-20 05:31N 49°29' W 000°08'0 0.0
2014-Jul-20 04:28N 49°29' W 000°08'0 0.0
2014-Jul-20 03:28N 49°29' W 000°08'0 0.0
2014-Jul-20 02:28N 49°29' W 000°08'0 0.0
2014-Jul-20 01:28N 49°29' W 000°08'1 0.7
2014-Jul-20 00:33N 49°29' W 000°08'1313.1
2014-Jul-19 23:33N 49°34' W 000°27'1514.8
2014-Jul-19 22:33N 49°41' W 000°48'1514.2
2014-Jul-19 21:32N 49°47' W 001°08'1312.7
2014-Jul-19 20:32N 49°53' W 001°26'  
2014-Jul-17 12:20N 38°46' W 009°51'1114.3
2014-Jul-17 11:33N 38°35' W 009°49'1414.5
2014-Jul-17 10:33N 38°20' W 009°44'1414.2
2014-Jul-17 09:33N 38°07' W 009°40'1414.0
2014-Jul-17 08:33N 37°53' W 009°37'1413.8
2014-Jul-17 07:33N 37°39' W 009°33'1413.6
2014-Jul-17 06:33N 37°26' W 009°29'1313.5
2014-Jul-17 05:34N 37°13' W 009°25'1413.9
2014-Jul-17 04:33N 36°59' W 009°21'1313.3
2014-Jul-17 03:33N 36°48' W 009°13'1313.1
2014-Jul-17 02:33N 36°42' W 008°59'1313.0
2014-Jul-17 01:33N 36°37' W 008°44'1313.5
2014-Jul-17 00:33N 36°33' W 008°28'  
Track history (hours):
 
Tides and Currents Weather Stations Pressure Air Temp Water Temp Dewpoint Dewpoint Depression Visibility Wind Speed Wind Dir Waves Ship Positions

Discovery

Operator: V Ships Leisure SAM

Last reported at 2014-Jul-22 22:11 UTC. Time now 2014-Jul-23 05:17 UTC.
Position N 49°48' W 000°57'.

Length 177 m; draft 9.8 m.

Type: Cargo ship. MMSI: 353389000.

Date/timePositionNaut miles runAvg speedWind from/ knotsBaromVisibWave heightAir tempDewpointWater temp
2014-Jul-22 22:11N 49°48' W 000°57'1015.2
2014-Jul-22 21:31N 49°42' W 000°44'1314.1
2014-Jul-22 20:34N 49°34' W 000°27'1313.4
2014-Jul-22 19:33N 49°30' W 000°07'1111.2
2014-Jul-22 18:33N 49°26' E 000°09'9 9.3
2014-Jul-22 17:33N 49°27' E 000°23'6 6.0
2014-Jul-22 16:33N 49°28' E 000°32'0 0.0
2014-Jul-20 16:33N 49°28' E 000°32'1010.3
2014-Jul-20 15:33N 49°26' E 000°17'1110.9
2014-Jul-20 14:34N 49°27' E 000°01'6 4.7
2014-Jul-20 13:22N 49°29' W 000°08'0 0.0
2014-Jul-20 12:31N 49°29' W 000°08'0 0.0
2014-Jul-20 11:28N 49°29' W 000°08'0 0.1
2014-Jul-20 10:28N 49°29' W 000°08'0 0.0
2014-Jul-20 09:28N 49°29' W 000°08'0 0.0
2014-Jul-20 08:28N 49°29' W 000°08'0 0.0
2014-Jul-20 07:28N 49°29' W 000°08'0 0.1
2014-Jul-20 06:31N 49°29' W 000°08'0 0.1
2014-Jul-20 05:31N 49°29' W 000°08'0 0.0
2014-Jul-20 04:28N 49°29' W 000°08'0 0.0
2014-Jul-20 03:28N 49°29' W 000°08'0 0.0
2014-Jul-20 02:28N 49°29' W 000°08'0 0.0
2014-Jul-20 01:28N 49°29' W 000°08'1 0.7
2014-Jul-20 00:33N 49°29' W 000°08'1313.1
2014-Jul-19 23:33N 49°34' W 000°27'1514.8
2014-Jul-19 22:33N 49°41' W 000°48'1514.2
2014-Jul-19 21:32N 49°47' W 001°08'1312.7
2014-Jul-19 20:32N 49°53' W 001°26'  
2014-Jul-17 12:20N 38°46' W 009°51'1114.3
2014-Jul-17 11:33N 38°35' W 009°49'1414.5
2014-Jul-17 10:33N 38°20' W 009°44'1414.2
2014-Jul-17 09:33N 38°07' W 009°40'1414.0
2014-Jul-17 08:33N 37°53' W 009°37'1413.8
2014-Jul-17 07:33N 37°39' W 009°33'1413.6
2014-Jul-17 06:33N 37°26' W 009°29'1313.5
2014-Jul-17 05:34N 37°13' W 009°25'1413.9
2014-Jul-17 04:33N 36°59' W 009°21'1313.3
2014-Jul-17 03:33N 36°48' W 009°13'1313.1
2014-Jul-17 02:33N 36°42' W 008°59'1313.0
2014-Jul-17 01:33N 36°37' W 008°44'1313.5
2014-Jul-17 00:33N 36°33' W 008°28'  

Dump ship's entire track history